createdAt,value
2023-04-09T00:01:11.221Z,42.20
2023-04-09T00:03:40.661Z,44.50
2023-04-09T00:06:09.130Z,42.80
2023-04-09T00:08:37.497Z,45.50
2023-04-09T00:11:06.096Z,41.10
2023-04-09T00:13:39.261Z,41.00
2023-04-09T00:16:09.092Z,42.00
2023-04-09T00:18:37.688Z,39.80
2023-04-09T00:21:07.275Z,40.60
2023-04-09T00:23:36.270Z,39.90
2023-04-09T00:26:04.650Z,41.60
2023-04-09T00:28:33.158Z,43.80
2023-04-09T00:31:01.613Z,40.10
2023-04-09T00:33:30.726Z,37.10
2023-04-09T00:35:59.029Z,39.70
2023-04-09T00:38:27.276Z,42.90
2023-04-09T00:40:55.949Z,50.10
2023-04-09T00:43:24.535Z,41.80
2023-04-09T00:45:53.051Z,46.40
2023-04-09T00:48:21.599Z,48.10
2023-04-09T00:50:49.780Z,45.20
2023-04-09T00:53:18.487Z,46.00
2023-04-09T00:55:47.145Z,50.40
2023-04-09T00:58:15.848Z,46.30
2023-04-09T01:00:44.121Z,47.40
2023-04-09T01:03:13.053Z,48.00
2023-04-09T01:05:48.752Z,45.00
2023-04-09T01:08:49.608Z,45.00
2023-04-09T01:11:32.404Z,43.00
2023-04-09T01:14:24.876Z,46.20
2023-04-09T01:17:06.642Z,40.40
2023-04-09T01:19:51.216Z,41.60
2023-04-09T01:22:54.089Z,41.20
2023-04-09T01:25:36.300Z,40.70
2023-04-09T01:28:17.440Z,45.10
2023-04-09T01:30:50.646Z,41.50
2023-04-09T01:33:20.738Z,41.20
2023-04-09T01:35:51.059Z,39.00
2023-04-09T01:38:21.964Z,41.10
2023-04-09T01:40:51.143Z,38.70
2023-04-09T01:43:20.339Z,38.80
2023-04-09T01:45:49.235Z,45.20
2023-04-09T01:48:17.919Z,40.40
2023-04-09T01:50:46.813Z,41.20
2023-04-09T01:53:15.910Z,41.20
2023-04-09T01:55:44.298Z,45.00
2023-04-09T01:58:12.683Z,45.10
2023-04-09T02:00:48.289Z,45.10
2023-04-09T02:03:34.084Z,45.00
2023-04-09T02:06:19.686Z,48.60
2023-04-09T02:08:48.982Z,46.30
2023-04-09T02:11:18.308Z,47.50
2023-04-09T02:13:46.870Z,43.30
2023-04-09T02:16:16.944Z,41.00
2023-04-09T02:18:45.368Z,40.80
2023-04-09T02:21:14.369Z,42.40
2023-04-09T02:23:42.643Z,40.10
2023-04-09T02:26:11.119Z,40.20
2023-04-09T02:28:39.401Z,42.80
2023-04-09T02:31:07.870Z,40.40
2023-04-09T02:33:36.360Z,39.20
2023-04-09T02:36:05.912Z,39.30
2023-04-09T02:38:34.141Z,37.00
2023-04-09T02:41:02.321Z,40.30
2023-04-09T02:43:31.002Z,38.30
2023-04-09T02:45:59.506Z,38.80
2023-04-09T02:48:28.384Z,39.10
2023-04-09T02:50:57.286Z,39.50
2023-04-09T02:53:26.118Z,40.00
2023-04-09T02:55:54.645Z,40.10
2023-04-09T02:58:23.022Z,38.70
2023-04-09T03:00:51.352Z,41.80
2023-04-09T03:03:19.918Z,41.50
2023-04-09T03:05:48.365Z,41.60
2023-04-09T03:08:16.884Z,39.60
2023-04-09T03:10:45.230Z,41.20
2023-04-09T03:13:13.712Z,37.80
2023-04-09T03:15:42.147Z,39.40
2023-04-09T03:18:10.776Z,41.70
2023-04-09T03:20:40.081Z,35.10
2023-04-09T03:23:11.013Z,40.50
2023-04-09T03:25:42.876Z,38.20
2023-04-09T03:28:16.486Z,37.40
2023-04-09T03:30:50.739Z,34.00
2023-04-09T03:33:19.909Z,35.70
2023-04-09T03:36:06.963Z,34.70
2023-04-09T03:38:55.617Z,39.70
2023-04-09T03:41:31.723Z,38.10
2023-04-09T03:44:02.870Z,36.40
2023-04-09T03:46:36.613Z,36.80
2023-04-09T03:49:05.462Z,36.70
2023-04-09T03:51:41.419Z,38.40
2023-04-09T03:54:09.691Z,40.50
2023-04-09T03:56:38.075Z,40.70
2023-04-09T03:59:09.008Z,40.80
2023-04-09T04:01:40.671Z,39.80
2023-04-09T04:04:09.385Z,42.10
2023-04-09T04:06:42.664Z,41.80
2023-04-09T04:09:24.541Z,37.00
2023-04-09T04:11:58.979Z,38.10
2023-04-09T04:14:38.910Z,36.60
2023-04-09T04:17:15.076Z,39.90
2023-04-09T04:19:43.556Z,37.80
2023-04-09T04:22:12.255Z,39.30
2023-04-09T04:24:42.393Z,38.10
2023-04-09T04:27:10.898Z,37.90
2023-04-09T04:29:39.221Z,39.30
2023-04-09T04:32:21.533Z,41.60
2023-04-09T04:34:50.752Z,41.20
2023-04-09T04:37:25.681Z,43.70
2023-04-09T04:39:56.779Z,45.00
2023-04-09T04:42:25.285Z,44.00
2023-04-09T04:44:53.871Z,41.60
2023-04-09T04:47:47.765Z,42.70
2023-04-09T04:50:16.376Z,43.50
2023-04-09T04:52:57.818Z,43.50
2023-04-09T04:55:29.270Z,41.50
2023-04-09T04:57:58.158Z,38.70
2023-04-09T05:00:28.895Z,43.60
2023-04-09T05:03:01.617Z,42.80
2023-04-09T05:05:54.634Z,41.10
2023-04-09T05:08:23.627Z,37.80
2023-04-09T05:10:56.335Z,40.80
2023-04-09T05:13:28.984Z,40.90
2023-04-09T05:15:57.670Z,42.70
2023-04-09T05:18:26.459Z,42.00
2023-04-09T05:20:54.833Z,42.20
2023-04-09T05:23:23.432Z,44.50
2023-04-09T05:25:51.759Z,43.50
2023-04-09T05:28:28.373Z,44.30
2023-04-09T05:31:05.376Z,41.30
2023-04-09T05:33:38.470Z,44.90
2023-04-09T05:36:19.190Z,46.90
2023-04-09T05:38:48.101Z,42.80
2023-04-09T05:41:16.602Z,40.90
2023-04-09T05:44:14.270Z,44.90
2023-04-09T05:46:42.633Z,42.80
2023-04-09T05:49:11.729Z,45.10
2023-04-09T05:51:40.557Z,40.00
2023-04-09T05:54:09.101Z,38.30
2023-04-09T05:56:38.753Z,39.30
2023-04-09T05:59:08.138Z,37.30
2023-04-09T06:01:36.387Z,35.50
2023-04-09T06:04:05.380Z,37.70
2023-04-09T06:06:33.760Z,35.90
2023-04-09T06:09:01.832Z,37.30
2023-04-09T06:11:33.490Z,39.80
2023-04-09T06:14:01.968Z,37.00
2023-04-09T06:16:30.350Z,38.10
2023-04-09T06:18:58.730Z,36.80
2023-04-09T06:21:27.003Z,40.90
2023-04-09T06:23:55.313Z,38.70
2023-04-09T06:26:23.462Z,37.40
2023-04-09T06:28:52.555Z,39.70
2023-04-09T06:31:21.303Z,37.70
2023-04-09T06:33:49.619Z,33.10
2023-04-09T06:36:17.792Z,33.40
2023-04-09T06:38:46.521Z,34.90
2023-04-09T06:41:15.067Z,34.30
2023-04-09T06:43:43.356Z,32.70
2023-04-09T06:46:12.246Z,33.00
2023-04-09T06:48:42.653Z,31.70
2023-04-09T06:51:11.449Z,33.70
2023-04-09T06:53:39.779Z,30.80
2023-04-09T06:56:08.381Z,32.50
2023-04-09T06:58:36.994Z,29.20
2023-04-09T07:01:06.185Z,25.40
2023-04-09T07:03:34.698Z,28.70
2023-04-09T07:06:03.367Z,28.90
2023-04-09T07:08:31.523Z,24.90
2023-04-09T07:10:59.806Z,25.50
2023-04-09T07:16:01.216Z,25.30
2023-04-09T07:18:30.690Z,23.40
2023-04-09T07:20:59.453Z,24.50
2023-04-09T07:23:27.863Z,22.90
2023-04-09T07:25:56.261Z,26.60
2023-04-09T07:28:24.488Z,23.80
2023-04-09T07:30:53.592Z,24.80
2023-04-09T07:33:21.999Z,26.30
2023-04-09T07:35:50.406Z,27.30
2023-04-09T07:38:18.580Z,25.10
2023-04-09T07:40:47.456Z,23.50
2023-04-09T07:43:15.830Z,22.90
2023-04-09T07:45:44.902Z,22.10
2023-04-09T07:48:13.276Z,23.70
2023-04-09T07:50:41.496Z,22.80
2023-04-09T07:53:09.830Z,22.50
2023-04-09T07:55:38.392Z,21.00
2023-04-09T07:58:07.654Z,21.60
2023-04-09T08:00:36.649Z,23.00
2023-04-09T08:03:05.391Z,22.70
2023-04-09T08:05:33.917Z,20.10
2023-04-09T08:08:01.998Z,20.80
2023-04-09T08:10:30.441Z,24.40
2023-04-09T08:12:58.672Z,23.40
2023-04-09T08:15:27.506Z,22.30
2023-04-09T08:17:55.684Z,22.50
2023-04-09T08:20:24.367Z,22.70
2023-04-09T08:22:52.644Z,22.10
2023-04-09T08:25:21.228Z,22.50
2023-04-09T08:27:49.382Z,21.40
2023-04-09T08:30:18.891Z,20.00
2023-04-09T08:32:47.521Z,28.00
2023-04-09T08:35:16.060Z,21.70
2023-04-09T08:37:44.378Z,20.70
2023-04-09T08:40:12.943Z,21.20
2023-04-09T08:42:46.159Z,19.40
2023-04-09T08:45:14.603Z,30.00
2023-04-09T08:47:44.971Z,26.00
2023-04-09T08:50:14.671Z,20.20
2023-04-09T08:52:46.216Z,17.10
2023-04-09T08:55:14.388Z,21.10
2023-04-09T08:57:42.869Z,19.60
2023-04-09T09:00:12.563Z,19.60
2023-04-09T09:03:07.278Z,20.20
2023-04-09T09:05:44.742Z,20.10
2023-04-09T09:08:33.597Z,24.60
2023-04-09T09:11:02.121Z,15.60
2023-04-09T09:13:30.385Z,19.10
2023-04-09T09:16:13.761Z,28.50
2023-04-09T09:18:44.223Z,18.40
2023-04-09T09:21:17.529Z,23.40
2023-04-09T09:23:48.500Z,16.80
2023-04-09T09:26:23.237Z,27.90
2023-04-09T09:28:52.515Z,13.80
2023-04-09T09:31:22.936Z,27.50
2023-04-09T09:33:52.105Z,14.90
2023-04-09T09:36:34.830Z,16.60
2023-04-09T09:39:10.610Z,17.10
2023-04-09T09:41:42.522Z,32.40
2023-04-09T09:44:12.175Z,29.00
2023-04-09T09:46:42.719Z,21.00
2023-04-09T09:49:10.955Z,22.50
2023-04-09T09:51:40.904Z,23.70
2023-04-09T09:54:13.036Z,16.00
2023-04-09T09:56:43.718Z,17.20
2023-04-09T09:59:23.115Z,15.60
2023-04-09T10:02:00.037Z,20.00
2023-04-09T10:04:35.002Z,16.50
2023-04-09T10:07:07.282Z,17.30
2023-04-09T10:09:38.363Z,21.80
2023-04-09T10:12:09.881Z,17.30
2023-04-09T10:14:40.410Z,18.00
2023-04-09T10:17:09.000Z,18.60
2023-04-09T10:19:46.896Z,16.90
2023-04-09T10:22:21.245Z,19.80
2023-04-09T10:24:51.624Z,16.90
2023-04-09T10:27:23.673Z,20.50
2023-04-09T10:29:52.295Z,16.60
2023-04-09T10:32:23.852Z,15.90
2023-04-09T10:34:52.849Z,15.70
2023-04-09T10:37:23.679Z,19.60
2023-04-09T10:39:53.284Z,17.40
2023-04-09T10:42:24.974Z,31.40
2023-04-09T10:45:15.213Z,14.80
2023-04-09T10:47:44.316Z,20.30
2023-04-09T10:50:28.034Z,17.70
2023-04-09T10:52:58.366Z,19.80
2023-04-09T10:55:40.963Z,17.90
2023-04-09T10:58:13.285Z,14.40
2023-04-09T11:00:44.765Z,17.00
2023-04-09T11:03:23.609Z,15.20
2023-04-09T11:06:02.975Z,17.90
2023-04-09T11:08:33.681Z,14.50
2023-04-09T11:11:02.780Z,14.80
2023-04-09T11:13:32.703Z,16.00
2023-04-09T11:16:03.528Z,16.40
2023-04-09T11:18:37.293Z,16.20
2023-04-09T11:21:06.570Z,14.10
2023-04-09T11:23:35.040Z,16.40
2023-04-09T11:26:04.092Z,16.10
2023-04-09T11:28:32.344Z,16.90
2023-04-09T11:31:00.869Z,15.00
2023-04-09T11:33:34.561Z,14.50
2023-04-09T11:36:06.577Z,14.40
2023-04-09T11:38:37.272Z,16.30
2023-04-09T11:41:05.545Z,20.80
2023-04-09T11:43:36.569Z,17.60
2023-04-09T11:46:06.194Z,16.50
2023-04-09T11:48:35.142Z,16.90
2023-04-09T11:51:04.151Z,15.40
2023-04-09T11:53:32.580Z,14.40
2023-04-09T11:56:01.717Z,15.90
2023-04-09T11:58:29.903Z,14.30
2023-04-09T12:00:59.207Z,15.30
2023-04-09T12:03:34.137Z,14.00
2023-04-09T12:06:04.184Z,17.20
2023-04-09T12:08:36.038Z,18.50
2023-04-09T12:11:12.814Z,15.10
2023-04-09T12:13:45.672Z,17.20
2023-04-09T12:16:14.970Z,17.60
2023-04-09T12:18:43.963Z,21.00
2023-04-09T12:21:12.988Z,24.50
2023-04-09T12:23:41.231Z,18.20
2023-04-09T12:26:09.706Z,16.20
2023-04-09T12:28:38.191Z,22.10
2023-04-09T12:31:11.168Z,18.40
2023-04-09T12:33:40.681Z,15.90
2023-04-09T12:36:09.116Z,19.00
2023-04-09T12:38:37.645Z,17.90
2023-04-09T12:41:05.907Z,42.00
2023-04-09T12:43:34.342Z,48.40
2023-04-09T12:46:04.082Z,105.90
2023-04-09T12:48:33.302Z,20.30
2023-04-09T12:51:02.106Z,15.50
2023-04-09T12:53:32.216Z,15.20
2023-04-09T12:56:01.859Z,19.30
2023-04-09T12:58:31.524Z,15.50
2023-04-09T13:01:00.368Z,15.50
2023-04-09T13:03:29.519Z,16.60
2023-04-09T13:05:58.314Z,13.60
2023-04-09T13:08:26.729Z,14.80
2023-04-09T13:10:55.321Z,14.60
2023-04-09T13:13:23.748Z,16.10
2023-04-09T13:15:52.279Z,14.50
2023-04-09T13:18:20.534Z,15.50
2023-04-09T13:20:48.709Z,14.10
2023-04-09T13:23:17.032Z,18.70
2023-04-09T13:25:45.296Z,15.40
2023-04-09T13:28:13.335Z,13.70
2023-04-09T13:30:41.742Z,12.00
2023-04-09T13:33:10.007Z,15.20
2023-04-09T13:35:41.135Z,15.60
2023-04-09T13:38:09.485Z,19.90
2023-04-09T13:40:37.667Z,18.40
2023-04-09T13:43:07.882Z,18.30
2023-04-09T13:45:36.157Z,17.00
2023-04-09T13:48:07.264Z,14.30
2023-04-09T13:50:35.516Z,17.60
2023-04-09T13:53:05.440Z,18.90
2023-04-09T13:55:33.500Z,15.10
2023-04-09T13:58:01.628Z,12.70
2023-04-09T14:00:31.195Z,14.10
2023-04-09T14:02:59.726Z,11.80
2023-04-09T14:05:30.160Z,11.40
2023-04-09T14:07:59.563Z,12.90
2023-04-09T14:10:27.691Z,13.60
2023-04-09T14:12:56.726Z,15.30
2023-04-09T14:15:26.039Z,12.60
2023-04-09T14:17:56.855Z,12.90
2023-04-09T14:20:25.348Z,11.80
2023-04-09T14:22:54.853Z,12.10
2023-04-09T14:25:23.738Z,14.10
2023-04-09T14:27:52.539Z,13.00
2023-04-09T14:30:22.852Z,13.90
2023-04-09T14:32:51.207Z,14.20
2023-04-09T14:35:20.324Z,15.00
2023-04-09T14:37:48.939Z,15.00
2023-04-09T14:40:17.410Z,15.90
2023-04-09T14:42:45.976Z,17.40
2023-04-09T14:45:14.458Z,12.50
2023-04-09T14:47:42.866Z,17.60
2023-04-09T14:50:13.001Z,13.80
2023-04-09T14:52:42.294Z,12.80
2023-04-09T14:55:12.675Z,14.90
2023-04-09T14:57:42.211Z,11.80
2023-04-09T15:00:12.661Z,12.40
2023-04-09T15:02:41.716Z,13.00
2023-04-09T15:05:10.870Z,11.60
2023-04-09T15:07:39.402Z,18.00
2023-04-09T15:10:08.510Z,14.70
2023-04-09T15:12:36.796Z,13.40
2023-04-09T15:15:09.568Z,14.70
2023-04-09T15:17:38.054Z,14.20
2023-04-09T15:20:07.961Z,27.10
2023-04-09T15:22:36.952Z,25.30
2023-04-09T15:25:05.742Z,14.50
2023-04-09T15:27:34.012Z,13.90
2023-04-09T15:30:02.423Z,129.70
2023-04-09T15:32:31.686Z,38.90
2023-04-09T15:35:00.947Z,25.10
2023-04-09T15:37:30.181Z,16.20
2023-04-09T15:39:58.776Z,15.60
2023-04-09T15:42:27.361Z,15.40
2023-04-09T15:44:56.158Z,18.40
2023-04-09T15:47:24.865Z,14.50
2023-04-09T15:49:53.329Z,19.50
2023-04-09T15:52:22.003Z,15.60
2023-04-09T15:54:50.481Z,15.70
2023-04-09T15:57:19.816Z,18.10
2023-04-09T15:59:48.627Z,22.00
2023-04-09T16:02:16.765Z,17.60
2023-04-09T16:04:45.723Z,19.00
2023-04-09T16:07:17.906Z,15.70
2023-04-09T16:09:46.795Z,18.30
2023-04-09T16:12:15.187Z,17.40
2023-04-09T16:14:43.569Z,19.10
2023-04-09T16:17:11.869Z,18.80
2023-04-09T16:19:40.108Z,19.90
2023-04-09T16:22:08.723Z,19.30
2023-04-09T16:24:37.583Z,21.60
2023-04-09T16:27:06.066Z,36.10
2023-04-09T16:29:34.764Z,45.80
2023-04-09T16:32:04.078Z,31.80
2023-04-09T16:34:32.431Z,29.20
2023-04-09T16:37:00.907Z,24.00
2023-04-09T16:39:29.580Z,20.20
2023-04-09T16:42:01.818Z,21.00
2023-04-09T16:44:30.552Z,21.00
2023-04-09T16:46:58.827Z,23.50
2023-04-09T16:49:27.311Z,23.50
2023-04-09T16:51:57.504Z,25.70
2023-04-09T16:54:26.321Z,30.60
2023-04-09T16:56:56.134Z,28.90
2023-04-09T16:59:24.923Z,26.40
2023-04-09T17:01:53.621Z,27.50
2023-04-09T17:04:22.182Z,23.20
2023-04-09T17:06:50.574Z,22.50
2023-04-09T17:09:18.949Z,21.60
2023-04-09T17:11:47.332Z,20.20
2023-04-09T17:14:16.057Z,19.30
2023-04-09T17:16:44.513Z,20.60
2023-04-09T17:19:14.113Z,21.40
2023-04-09T17:21:42.484Z,21.70
2023-04-09T17:24:10.967Z,21.50
2023-04-09T17:26:39.891Z,21.20
2023-04-09T17:29:08.089Z,23.20
2023-04-09T17:31:36.701Z,25.00
2023-04-09T17:34:05.201Z,23.50
2023-04-09T17:36:33.380Z,24.40
2023-04-09T17:39:01.965Z,23.70
2023-04-09T17:41:30.852Z,26.70
2023-04-09T17:43:59.023Z,22.70
2023-04-09T17:46:27.554Z,23.80
2023-04-09T17:48:56.606Z,22.00
2023-04-09T17:51:24.780Z,22.20
2023-04-09T17:53:54.055Z,21.70
2023-04-09T17:56:22.969Z,22.50
2023-04-09T17:58:51.818Z,23.10
2023-04-09T18:01:21.012Z,24.10
2023-04-09T18:03:49.681Z,33.00
2023-04-09T18:06:18.225Z,61.40
2023-04-09T18:08:46.399Z,35.00
2023-04-09T18:11:18.227Z,31.50
2023-04-09T18:13:46.761Z,26.00
2023-04-09T18:16:15.458Z,26.20
2023-04-09T18:18:43.813Z,25.50
2023-04-09T18:21:15.086Z,26.40
2023-04-09T18:23:43.330Z,25.10
2023-04-09T18:26:11.710Z,29.60
2023-04-09T18:28:40.607Z,26.00
2023-04-09T18:31:11.570Z,27.50
2023-04-09T18:33:40.104Z,31.50
2023-04-09T18:36:08.873Z,37.10
2023-04-09T18:38:37.613Z,33.80
2023-04-09T18:41:05.989Z,34.60
2023-04-09T18:43:34.466Z,33.20
2023-04-09T18:46:08.687Z,36.70
2023-04-09T18:48:37.357Z,36.70
2023-04-09T18:51:09.529Z,32.80
2023-04-09T18:53:38.033Z,30.60
2023-04-09T18:56:07.416Z,26.00
2023-04-09T18:58:36.458Z,27.90
2023-04-09T19:01:14.599Z,27.90
2023-04-09T19:03:43.252Z,25.80
2023-04-09T19:06:16.841Z,27.20
2023-04-09T19:08:46.324Z,25.30
2023-04-09T19:11:15.202Z,26.50
2023-04-09T19:13:44.135Z,27.60
2023-04-09T19:16:12.619Z,27.20
2023-04-09T19:18:41.159Z,30.00
2023-04-09T19:21:09.292Z,30.90
2023-04-09T19:23:39.146Z,30.50
2023-04-09T19:26:07.527Z,30.10
2023-04-09T19:28:36.251Z,26.00
2023-04-09T19:31:06.439Z,24.40
2023-04-09T19:33:34.716Z,23.30
2023-04-09T19:36:02.898Z,24.60
2023-04-09T19:38:31.163Z,22.70
2023-04-09T19:40:59.542Z,26.20
2023-04-09T19:43:29.352Z,24.30
2023-04-09T19:45:57.845Z,27.40
2023-04-09T19:48:26.327Z,25.50
2023-04-09T19:50:54.725Z,27.10
2023-04-09T19:53:23.278Z,25.90
2023-04-09T19:55:51.755Z,24.30
2023-04-09T19:58:19.949Z,25.70
2023-04-09T20:00:48.406Z,25.10
2023-04-09T20:03:17.372Z,24.70
2023-04-09T20:05:45.750Z,26.00
2023-04-09T20:08:15.858Z,25.20
2023-04-09T20:10:46.948Z,24.30
2023-04-09T20:13:15.230Z,25.20
2023-04-09T20:15:44.526Z,25.80
2023-04-09T20:18:12.908Z,24.00
2023-04-09T20:20:41.285Z,25.50
2023-04-09T20:23:09.878Z,22.10
2023-04-09T20:25:38.266Z,27.50
2023-04-09T20:28:06.627Z,24.90
2023-04-09T20:30:35.105Z,23.10
2023-04-09T20:33:03.526Z,24.00
2023-04-09T20:35:36.607Z,23.50
2023-04-09T20:38:04.952Z,23.60
2023-04-09T20:40:36.140Z,24.00
2023-04-09T20:43:04.679Z,21.70
2023-04-09T20:45:32.995Z,20.50
2023-04-09T20:48:01.693Z,23.10
2023-04-09T20:50:31.150Z,22.70
2023-04-09T20:52:59.650Z,21.00
2023-04-09T20:55:27.812Z,21.90
2023-04-09T20:57:56.612Z,22.10
2023-04-09T21:00:24.971Z,23.70
2023-04-09T21:02:53.307Z,23.30
2023-04-09T21:05:23.981Z,24.60
2023-04-09T21:07:53.284Z,27.20
2023-04-09T21:10:21.889Z,25.50
2023-04-09T21:12:50.244Z,25.60
2023-04-09T21:15:18.524Z,26.90
2023-04-09T21:17:46.852Z,25.10
2023-04-09T21:20:16.772Z,25.40
2023-04-09T21:22:45.846Z,25.30
2023-04-09T21:25:15.428Z,24.10
2023-04-09T21:27:44.007Z,26.50
2023-04-09T21:30:12.494Z,26.00
2023-04-09T21:32:40.731Z,25.10
2023-04-09T21:35:08.949Z,25.50
2023-04-09T21:37:38.447Z,26.00
2023-04-09T21:40:07.566Z,25.10
2023-04-09T21:42:36.052Z,25.30
2023-04-09T21:45:05.121Z,25.90
2023-04-09T21:47:33.742Z,23.80
2023-04-09T21:50:03.566Z,22.10
2023-04-09T21:52:32.412Z,24.00
2023-04-09T21:55:01.154Z,22.70
2023-04-09T21:57:29.679Z,24.00
2023-04-09T21:59:58.885Z,24.00
2023-04-09T22:02:28.527Z,23.30
2023-04-09T22:05:00.117Z,22.20
2023-04-09T22:07:28.625Z,21.60
2023-04-09T22:09:57.937Z,23.80
2023-04-09T22:12:26.311Z,21.70
2023-04-09T22:14:54.688Z,23.50
2023-04-09T22:17:22.878Z,26.50
2023-04-09T22:19:51.263Z,23.80
2023-04-09T22:22:19.414Z,25.50
2023-04-09T22:24:47.597Z,24.30
2023-04-09T22:27:16.433Z,25.10
2023-04-09T22:29:44.958Z,25.20
2023-04-09T22:32:13.753Z,25.60
2023-04-09T22:34:42.024Z,24.40
2023-04-09T22:37:10.620Z,22.50
2023-04-09T22:39:38.986Z,23.00
2023-04-09T22:42:07.775Z,22.80
2023-04-09T22:44:36.464Z,24.20
2023-04-09T22:47:04.639Z,23.80
2023-04-09T22:49:32.930Z,24.50
2023-04-09T22:52:01.391Z,23.70
2023-04-09T22:54:30.386Z,24.20
2023-04-09T22:56:58.565Z,24.80
2023-04-09T22:59:39.017Z,25.50
2023-04-09T23:02:08.759Z,27.60
2023-04-09T23:04:37.479Z,22.60
2023-04-09T23:07:06.000Z,21.70
2023-04-09T23:09:34.378Z,22.30
2023-04-09T23:12:03.076Z,21.80
2023-04-09T23:14:31.345Z,21.10
2023-04-09T23:16:59.514Z,20.00
2023-04-09T23:19:28.001Z,20.80
2023-04-09T23:21:56.593Z,20.00
2023-04-09T23:24:24.942Z,23.00
2023-04-09T23:26:53.337Z,22.20
2023-04-09T23:29:21.510Z,22.10
2023-04-09T23:31:49.639Z,23.40
2023-04-09T23:34:17.865Z,23.10
2023-04-09T23:36:46.342Z,22.90
2023-04-09T23:39:14.723Z,21.70
2023-04-09T23:41:43.205Z,22.20
2023-04-09T23:44:11.284Z,22.00
2023-04-09T23:46:39.514Z,26.00
2023-04-09T23:49:07.827Z,24.10
2023-04-09T23:51:36.310Z,24.60
2023-04-09T23:54:04.502Z,24.10
2023-04-09T23:56:33.587Z,25.70
2023-04-09T23:59:01.766Z,23.40
